sensor_id;sensor_type;location;lat;lon;timestamp;P1;durP1;ratioP1;P2;durP2;ratioP2
61252;SDS011;47127;47.516;8.596;2023-01-28T00:02:05;22.25;;;8.60;;
61252;SDS011;47127;47.516;8.596;2023-01-28T00:04:30;22.42;;;9.43;;
61252;SDS011;47127;47.516;8.596;2023-01-28T00:06:56;21.55;;;9.27;;
61252;SDS011;47127;47.516;8.596;2023-01-28T00:09:21;22.98;;;9.23;;
61252;SDS011;47127;47.516;8.596;2023-01-28T00:11:47;21.75;;;9.10;;
61252;SDS011;47127;47.516;8.596;2023-01-28T00:14:13;22.13;;;8.80;;
61252;SDS011;47127;47.516;8.596;2023-01-28T00:16:38;20.85;;;9.23;;
61252;SDS011;47127;47.516;8.596;2023-01-28T00:19:04;23.45;;;9.13;;
61252;SDS011;47127;47.516;8.596;2023-01-28T00:21:29;24.65;;;9.90;;
61252;SDS011;47127;47.516;8.596;2023-01-28T00:23:55;22.73;;;10.40;;
61252;SDS011;47127;47.516;8.596;2023-01-28T00:26:21;26.75;;;11.00;;
61252;SDS011;47127;47.516;8.596;2023-01-28T00:28:49;27.17;;;9.10;;
61252;SDS011;47127;47.516;8.596;2023-01-28T00:31:15;23.80;;;8.93;;
61252;SDS011;47127;47.516;8.596;2023-01-28T00:33:43;25.42;;;10.15;;
61252;SDS011;47127;47.516;8.596;2023-01-28T00:36:10;27.15;;;11.02;;
61252;SDS011;47127;47.516;8.596;2023-01-28T00:38:35;27.08;;;10.32;;
61252;SDS011;47127;47.516;8.596;2023-01-28T00:41:11;29.42;;;12.77;;
61252;SDS011;47127;47.516;8.596;2023-01-28T00:43:41;23.95;;;10.20;;
61252;SDS011;47127;47.516;8.596;2023-01-28T00:46:09;28.42;;;11.80;;
61252;SDS011;47127;47.516;8.596;2023-01-28T00:48:36;25.55;;;12.07;;
61252;SDS011;47127;47.516;8.596;2023-01-28T00:51:03;21.55;;;9.25;;
61252;SDS011;47127;47.516;8.596;2023-01-28T00:53:29;24.55;;;10.25;;
61252;SDS011;47127;47.516;8.596;2023-01-28T00:55:54;21.70;;;10.10;;
61252;SDS011;47127;47.516;8.596;2023-01-28T00:58:20;22.85;;;10.10;;
61252;SDS011;47127;47.516;8.596;2023-01-28T01:00:48;25.90;;;10.63;;
61252;SDS011;47127;47.516;8.596;2023-01-28T01:03:14;23.33;;;9.88;;
61252;SDS011;47127;47.516;8.596;2023-01-28T01:05:40;26.38;;;10.65;;
61252;SDS011;47127;47.516;8.596;2023-01-28T01:08:05;21.58;;;9.43;;
61252;SDS011;47127;47.516;8.596;2023-01-28T01:10:31;25.77;;;10.57;;
61252;SDS011;47127;47.516;8.596;2023-01-28T01:12:56;22.95;;;10.30;;
61252;SDS011;47127;47.516;8.596;2023-01-28T01:15:23;21.33;;;9.73;;
61252;SDS011;47127;47.516;8.596;2023-01-28T01:17:48;24.88;;;10.35;;
61252;SDS011;47127;47.516;8.596;2023-01-28T01:20:20;25.42;;;10.18;;
61252;SDS011;47127;47.516;8.596;2023-01-28T01:22:51;26.08;;;11.02;;
61252;SDS011;47127;47.516;8.596;2023-01-28T01:25:17;24.90;;;9.50;;
61252;SDS011;47127;47.516;8.596;2023-01-28T01:27:44;23.58;;;10.07;;
61252;SDS011;47127;47.516;8.596;2023-01-28T01:30:12;21.17;;;9.40;;
61252;SDS011;47127;47.516;8.596;2023-01-28T01:32:38;24.65;;;9.88;;
61252;SDS011;47127;47.516;8.596;2023-01-28T01:35:04;22.63;;;10.10;;
61252;SDS011;47127;47.516;8.596;2023-01-28T01:37:32;22.00;;;10.20;;
61252;SDS011;47127;47.516;8.596;2023-01-28T01:39:58;23.83;;;10.40;;
61252;SDS011;47127;47.516;8.596;2023-01-28T01:42:26;24.25;;;9.95;;
61252;SDS011;47127;47.516;8.596;2023-01-28T01:44:54;26.23;;;10.70;;
61252;SDS011;47127;47.516;8.596;2023-01-28T01:47:31;23.42;;;10.05;;
61252;SDS011;47127;47.516;8.596;2023-01-28T01:50:21;32.50;;;14.63;;
61252;SDS011;47127;47.516;8.596;2023-01-28T01:52:58;26.77;;;11.48;;
61252;SDS011;47127;47.516;8.596;2023-01-28T01:55:28;27.83;;;11.82;;
61252;SDS011;47127;47.516;8.596;2023-01-28T01:57:58;23.70;;;10.80;;
61252;SDS011;47127;47.516;8.596;2023-01-28T02:00:29;26.25;;;10.82;;
61252;SDS011;47127;47.516;8.596;2023-01-28T02:02:54;24.17;;;10.65;;
61252;SDS011;47127;47.516;8.596;2023-01-28T02:05:21;25.27;;;10.75;;
61252;SDS011;47127;47.516;8.596;2023-01-28T02:07:47;25.98;;;10.00;;
61252;SDS011;47127;47.516;8.596;2023-01-28T02:10:15;22.58;;;10.52;;
61252;SDS011;47127;47.516;8.596;2023-01-28T02:12:42;23.95;;;10.80;;
61252;SDS011;47127;47.516;8.596;2023-01-28T02:15:16;23.55;;;10.73;;
61252;SDS011;47127;47.516;8.596;2023-01-28T02:17:44;28.25;;;12.35;;
61252;SDS011;47127;47.516;8.596;2023-01-28T02:20:11;24.67;;;11.73;;
61252;SDS011;47127;47.516;8.596;2023-01-28T02:30:51;23.23;;;11.10;;
61252;SDS011;47127;47.516;8.596;2023-01-28T02:36:11;25.33;;;10.75;;
61252;SDS011;47127;47.516;8.596;2023-01-28T02:38:44;24.50;;;10.88;;
61252;SDS011;47127;47.516;8.596;2023-01-28T02:41:14;25.45;;;11.85;;
61252;SDS011;47127;47.516;8.596;2023-01-28T02:44:04;26.95;;;11.05;;
61252;SDS011;47127;47.516;8.596;2023-01-28T02:49:32;25.63;;;12.60;;
61252;SDS011;47127;47.516;8.596;2023-01-28T02:52:31;29.38;;;12.27;;
61252;SDS011;47127;47.516;8.596;2023-01-28T02:55:31;25.75;;;11.90;;
61252;SDS011;47127;47.516;8.596;2023-01-28T02:58:15;25.05;;;11.75;;
61252;SDS011;47127;47.516;8.596;2023-01-28T03:01:09;22.13;;;11.05;;
61252;SDS011;47127;47.516;8.596;2023-01-28T03:04:11;26.00;;;12.10;;
61252;SDS011;47127;47.516;8.596;2023-01-28T03:06:47;25.00;;;11.90;;
61252;SDS011;47127;47.516;8.596;2023-01-28T03:09:16;27.33;;;12.10;;
61252;SDS011;47127;47.516;8.596;2023-01-28T03:11:56;24.92;;;11.90;;
61252;SDS011;47127;47.516;8.596;2023-01-28T03:14:46;27.95;;;12.95;;
61252;SDS011;47127;47.516;8.596;2023-01-28T03:21:01;23.58;;;11.05;;
61252;SDS011;47127;47.516;8.596;2023-01-28T03:23:55;25.83;;;11.43;;
61252;SDS011;47127;47.516;8.596;2023-01-28T03:26:44;24.98;;;11.48;;
61252;SDS011;47127;47.516;8.596;2023-01-28T03:29:37;22.20;;;10.90;;
61252;SDS011;47127;47.516;8.596;2023-01-28T03:32:24;24.40;;;11.77;;
61252;SDS011;47127;47.516;8.596;2023-01-28T03:35:09;23.63;;;9.98;;
61252;SDS011;47127;47.516;8.596;2023-01-28T03:37:56;23.17;;;10.57;;
61252;SDS011;47127;47.516;8.596;2023-01-28T03:40:24;24.52;;;10.57;;
61252;SDS011;47127;47.516;8.596;2023-01-28T03:42:51;22.50;;;10.13;;
61252;SDS011;47127;47.516;8.596;2023-01-28T03:45:18;23.40;;;11.05;;
61252;SDS011;47127;47.516;8.596;2023-01-28T03:47:45;23.30;;;11.25;;
61252;SDS011;47127;47.516;8.596;2023-01-28T03:50:10;21.52;;;10.60;;
61252;SDS011;47127;47.516;8.596;2023-01-28T03:52:36;22.08;;;10.68;;
61252;SDS011;47127;47.516;8.596;2023-01-28T03:55:02;24.55;;;11.65;;
61252;SDS011;47127;47.516;8.596;2023-01-28T03:57:37;23.48;;;10.82;;
61252;SDS011;47127;47.516;8.596;2023-01-28T04:00:03;21.42;;;10.70;;
61252;SDS011;47127;47.516;8.596;2023-01-28T04:02:29;23.75;;;10.90;;
61252;SDS011;47127;47.516;8.596;2023-01-28T04:04:55;26.67;;;11.68;;
61252;SDS011;47127;47.516;8.596;2023-01-28T04:07:22;23.80;;;10.75;;
61252;SDS011;47127;47.516;8.596;2023-01-28T04:09:48;25.30;;;10.57;;
61252;SDS011;47127;47.516;8.596;2023-01-28T04:12:13;25.60;;;11.68;;
61252;SDS011;47127;47.516;8.596;2023-01-28T04:14:39;23.52;;;11.50;;
61252;SDS011;47127;47.516;8.596;2023-01-28T04:17:05;23.35;;;10.82;;
61252;SDS011;47127;47.516;8.596;2023-01-28T04:19:33;23.65;;;11.38;;
61252;SDS011;47127;47.516;8.596;2023-01-28T04:22:01;22.80;;;10.65;;
61252;SDS011;47127;47.516;8.596;2023-01-28T04:24:28;23.95;;;11.05;;
61252;SDS011;47127;47.516;8.596;2023-01-28T04:26:53;22.30;;;10.90;;
61252;SDS011;47127;47.516;8.596;2023-01-28T04:29:19;21.48;;;10.18;;
61252;SDS011;47127;47.516;8.596;2023-01-28T04:31:44;23.92;;;9.85;;
61252;SDS011;47127;47.516;8.596;2023-01-28T04:34:10;22.20;;;11.00;;
61252;SDS011;47127;47.516;8.596;2023-01-28T04:36:35;21.35;;;10.32;;
61252;SDS011;47127;47.516;8.596;2023-01-28T04:39:01;20.80;;;9.70;;
61252;SDS011;47127;47.516;8.596;2023-01-28T04:41:27;21.42;;;9.73;;
61252;SDS011;47127;47.516;8.596;2023-01-28T04:43:52;23.58;;;10.50;;
61252;SDS011;47127;47.516;8.596;2023-01-28T04:46:18;23.52;;;10.82;;
61252;SDS011;47127;47.516;8.596;2023-01-28T04:48:43;20.65;;;10.10;;
61252;SDS011;47127;47.516;8.596;2023-01-28T04:51:09;20.98;;;10.18;;
61252;SDS011;47127;47.516;8.596;2023-01-28T04:53:34;19.90;;;9.85;;
61252;SDS011;47127;47.516;8.596;2023-01-28T04:56:00;21.13;;;9.57;;
61252;SDS011;47127;47.516;8.596;2023-01-28T04:58:25;23.38;;;9.73;;
61252;SDS011;47127;47.516;8.596;2023-01-28T05:00:57;22.45;;;10.30;;
61252;SDS011;47127;47.516;8.596;2023-01-28T05:03:23;20.42;;;9.60;;
61252;SDS011;47127;47.516;8.596;2023-01-28T05:05:49;20.45;;;10.07;;
61252;SDS011;47127;47.516;8.596;2023-01-28T05:08:15;19.95;;;9.68;;
61252;SDS011;47127;47.516;8.596;2023-01-28T05:10:41;19.67;;;8.73;;
61252;SDS011;47127;47.516;8.596;2023-01-28T05:13:07;17.85;;;9.40;;
61252;SDS011;47127;47.516;8.596;2023-01-28T05:15:32;21.65;;;9.77;;
61252;SDS011;47127;47.516;8.596;2023-01-28T05:17:58;20.10;;;9.38;;
61252;SDS011;47127;47.516;8.596;2023-01-28T05:20:24;20.40;;;8.98;;
61252;SDS011;47127;47.516;8.596;2023-01-28T05:22:50;20.80;;;9.15;;
61252;SDS011;47127;47.516;8.596;2023-01-28T05:25:16;20.02;;;8.77;;
61252;SDS011;47127;47.516;8.596;2023-01-28T05:27:42;20.00;;;9.38;;
61252;SDS011;47127;47.516;8.596;2023-01-28T05:30:07;18.90;;;8.70;;
61252;SDS011;47127;47.516;8.596;2023-01-28T05:32:33;15.52;;;7.88;;
61252;SDS011;47127;47.516;8.596;2023-01-28T05:34:59;17.65;;;8.88;;
61252;SDS011;47127;47.516;8.596;2023-01-28T05:37:24;18.45;;;9.35;;
61252;SDS011;47127;47.516;8.596;2023-01-28T05:39:50;16.70;;;7.93;;
61252;SDS011;47127;47.516;8.596;2023-01-28T05:42:15;17.75;;;8.85;;
61252;SDS011;47127;47.516;8.596;2023-01-28T05:44:42;18.88;;;8.23;;
61252;SDS011;47127;47.516;8.596;2023-01-28T05:47:08;18.63;;;8.98;;
61252;SDS011;47127;47.516;8.596;2023-01-28T05:49:33;15.88;;;8.75;;
61252;SDS011;47127;47.516;8.596;2023-01-28T05:51:59;17.35;;;8.55;;
61252;SDS011;47127;47.516;8.596;2023-01-28T05:54:25;16.38;;;8.45;;
61252;SDS011;47127;47.516;8.596;2023-01-28T05:56:51;16.33;;;8.05;;
61252;SDS011;47127;47.516;8.596;2023-01-28T05:59:17;18.80;;;8.70;;
61252;SDS011;47127;47.516;8.596;2023-01-28T06:01:42;16.95;;;8.35;;
61252;SDS011;47127;47.516;8.596;2023-01-28T06:04:08;17.38;;;8.45;;
61252;SDS011;47127;47.516;8.596;2023-01-28T06:06:33;16.83;;;8.30;;
61252;SDS011;47127;47.516;8.596;2023-01-28T06:08:59;19.38;;;9.05;;
61252;SDS011;47127;47.516;8.596;2023-01-28T06:11:25;17.63;;;8.05;;
61252;SDS011;47127;47.516;8.596;2023-01-28T06:13:51;19.13;;;9.10;;
61252;SDS011;47127;47.516;8.596;2023-01-28T06:16:16;19.23;;;8.85;;
61252;SDS011;47127;47.516;8.596;2023-01-28T06:18:42;17.58;;;9.00;;
61252;SDS011;47127;47.516;8.596;2023-01-28T06:21:08;19.23;;;8.80;;
61252;SDS011;47127;47.516;8.596;2023-01-28T06:23:34;18.13;;;8.60;;
61252;SDS011;47127;47.516;8.596;2023-01-28T06:25:59;18.23;;;8.88;;
61252;SDS011;47127;47.516;8.596;2023-01-28T06:28:25;19.83;;;9.07;;
61252;SDS011;47127;47.516;8.596;2023-01-28T06:30:51;19.40;;;8.95;;
61252;SDS011;47127;47.516;8.596;2023-01-28T06:33:17;19.05;;;9.27;;
61252;SDS011;47127;47.516;8.596;2023-01-28T06:35:43;19.25;;;9.07;;
61252;SDS011;47127;47.516;8.596;2023-01-28T06:38:09;20.30;;;9.70;;
61252;SDS011;47127;47.516;8.596;2023-01-28T06:40:35;21.13;;;9.75;;
61252;SDS011;47127;47.516;8.596;2023-01-28T06:43:02;17.77;;;8.60;;
61252;SDS011;47127;47.516;8.596;2023-01-28T06:45:28;17.23;;;8.05;;
61252;SDS011;47127;47.516;8.596;2023-01-28T06:47:53;19.75;;;8.60;;
61252;SDS011;47127;47.516;8.596;2023-01-28T06:50:19;17.80;;;8.15;;
61252;SDS011;47127;47.516;8.596;2023-01-28T06:52:44;19.48;;;8.45;;
61252;SDS011;47127;47.516;8.596;2023-01-28T06:55:10;17.17;;;8.50;;
61252;SDS011;47127;47.516;8.596;2023-01-28T06:57:36;19.40;;;9.07;;
61252;SDS011;47127;47.516;8.596;2023-01-28T07:00:03;18.17;;;8.63;;
61252;SDS011;47127;47.516;8.596;2023-01-28T07:02:29;19.17;;;9.38;;
61252;SDS011;47127;47.516;8.596;2023-01-28T07:04:55;17.27;;;8.52;;
61252;SDS011;47127;47.516;8.596;2023-01-28T07:07:20;17.42;;;8.23;;
61252;SDS011;47127;47.516;8.596;2023-01-28T07:09:46;18.67;;;7.78;;
61252;SDS011;47127;47.516;8.596;2023-01-28T07:12:11;18.20;;;7.80;;
61252;SDS011;47127;47.516;8.596;2023-01-28T07:14:37;19.17;;;7.80;;
61252;SDS011;47127;47.516;8.596;2023-01-28T07:17:02;16.63;;;6.97;;
61252;SDS011;47127;47.516;8.596;2023-01-28T07:19:28;18.17;;;8.18;;
61252;SDS011;47127;47.516;8.596;2023-01-28T07:21:53;17.25;;;7.18;;
61252;SDS011;47127;47.516;8.596;2023-01-28T07:24:22;18.35;;;8.15;;
61252;SDS011;47127;47.516;8.596;2023-01-28T07:26:47;19.92;;;8.18;;
61252;SDS011;47127;47.516;8.596;2023-01-28T07:29:13;19.20;;;8.38;;
61252;SDS011;47127;47.516;8.596;2023-01-28T07:31:38;16.48;;;7.75;;
61252;SDS011;47127;47.516;8.596;2023-01-28T07:34:04;16.30;;;7.47;;
61252;SDS011;47127;47.516;8.596;2023-01-28T07:36:29;20.60;;;8.80;;
61252;SDS011;47127;47.516;8.596;2023-01-28T07:38:55;19.55;;;8.80;;
61252;SDS011;47127;47.516;8.596;2023-01-28T07:41:20;19.75;;;8.38;;
61252;SDS011;47127;47.516;8.596;2023-01-28T07:43:46;19.90;;;8.63;;
61252;SDS011;47127;47.516;8.596;2023-01-28T07:46:11;20.90;;;9.05;;
61252;SDS011;47127;47.516;8.596;2023-01-28T07:48:37;20.02;;;9.20;;
61252;SDS011;47127;47.516;8.596;2023-01-28T07:51:03;20.23;;;9.98;;
61252;SDS011;47127;47.516;8.596;2023-01-28T07:53:29;17.23;;;7.93;;
61252;SDS011;47127;47.516;8.596;2023-01-28T07:55:58;17.38;;;7.82;;
61252;SDS011;47127;47.516;8.596;2023-01-28T07:58:24;19.58;;;8.73;;
61252;SDS011;47127;47.516;8.596;2023-01-28T08:00:50;19.25;;;8.43;;
61252;SDS011;47127;47.516;8.596;2023-01-28T08:03:15;20.60;;;8.82;;
61252;SDS011;47127;47.516;8.596;2023-01-28T08:08:08;19.65;;;8.90;;
61252;SDS011;47127;47.516;8.596;2023-01-28T08:10:35;17.73;;;7.80;;
61252;SDS011;47127;47.516;8.596;2023-01-28T08:13:01;18.17;;;8.10;;
61252;SDS011;47127;47.516;8.596;2023-01-28T08:15:27;19.35;;;8.52;;
61252;SDS011;47127;47.516;8.596;2023-01-28T08:17:54;20.40;;;8.10;;
61252;SDS011;47127;47.516;8.596;2023-01-28T08:20:20;16.75;;;8.00;;
61252;SDS011;47127;47.516;8.596;2023-01-28T08:22:47;16.92;;;7.60;;
61252;SDS011;47127;47.516;8.596;2023-01-28T08:25:12;16.42;;;7.85;;
61252;SDS011;47127;47.516;8.596;2023-01-28T08:27:38;19.20;;;8.48;;
61252;SDS011;47127;47.516;8.596;2023-01-28T08:30:04;15.93;;;6.88;;
61252;SDS011;47127;47.516;8.596;2023-01-28T08:32:30;18.63;;;7.28;;
61252;SDS011;47127;47.516;8.596;2023-01-28T08:34:55;15.07;;;7.65;;
61252;SDS011;47127;47.516;8.596;2023-01-28T08:37:21;17.58;;;7.57;;
61252;SDS011;47127;47.516;8.596;2023-01-28T08:39:47;18.00;;;7.57;;
61252;SDS011;47127;47.516;8.596;2023-01-28T08:42:12;15.23;;;7.10;;
61252;SDS011;47127;47.516;8.596;2023-01-28T08:44:38;15.73;;;7.22;;
61252;SDS011;47127;47.516;8.596;2023-01-28T08:47:03;16.00;;;6.90;;
61252;SDS011;47127;47.516;8.596;2023-01-28T08:49:30;17.95;;;6.80;;
61252;SDS011;47127;47.516;8.596;2023-01-28T08:51:56;18.13;;;7.25;;
61252;SDS011;47127;47.516;8.596;2023-01-28T08:54:21;17.05;;;6.85;;
61252;SDS011;47127;47.516;8.596;2023-01-28T08:56:47;16.60;;;7.82;;
61252;SDS011;47127;47.516;8.596;2023-01-28T08:59:13;18.15;;;7.32;;
61252;SDS011;47127;47.516;8.596;2023-01-28T09:01:39;16.60;;;6.53;;
61252;SDS011;47127;47.516;8.596;2023-01-28T09:04:04;12.70;;;5.18;;
61252;SDS011;47127;47.516;8.596;2023-01-28T09:06:30;15.02;;;6.28;;
61252;SDS011;47127;47.516;8.596;2023-01-28T09:08:57;15.82;;;6.82;;
61252;SDS011;47127;47.516;8.596;2023-01-28T09:11:23;14.43;;;6.18;;
61252;SDS011;47127;47.516;8.596;2023-01-28T09:13:49;15.27;;;6.22;;
61252;SDS011;47127;47.516;8.596;2023-01-28T09:16:14;13.30;;;5.70;;
61252;SDS011;47127;47.516;8.596;2023-01-28T09:18:40;16.65;;;6.80;;
61252;SDS011;47127;47.516;8.596;2023-01-28T09:21:06;16.58;;;6.43;;
61252;SDS011;47127;47.516;8.596;2023-01-28T09:23:33;14.20;;;6.82;;
61252;SDS011;47127;47.516;8.596;2023-01-28T09:25:59;16.98;;;7.10;;
61252;SDS011;47127;47.516;8.596;2023-01-28T09:28:25;14.95;;;6.05;;
61252;SDS011;47127;47.516;8.596;2023-01-28T09:30:51;16.20;;;6.32;;
61252;SDS011;47127;47.516;8.596;2023-01-28T09:33:16;14.98;;;6.93;;
61252;SDS011;47127;47.516;8.596;2023-01-28T09:35:42;16.33;;;6.78;;
61252;SDS011;47127;47.516;8.596;2023-01-28T09:38:07;15.18;;;5.38;;
61252;SDS011;47127;47.516;8.596;2023-01-28T09:40:34;19.23;;;6.90;;
61252;SDS011;47127;47.516;8.596;2023-01-28T09:43:25;14.20;;;6.03;;
61252;SDS011;47127;47.516;8.596;2023-01-28T09:45:57;14.20;;;5.72;;
61252;SDS011;47127;47.516;8.596;2023-01-28T09:48:30;12.75;;;5.65;;
61252;SDS011;47127;47.516;8.596;2023-01-28T09:51:02;15.45;;;6.60;;
61252;SDS011;47127;47.516;8.596;2023-01-28T09:53:32;14.65;;;6.05;;
61252;SDS011;47127;47.516;8.596;2023-01-28T09:56:02;14.93;;;5.28;;
61252;SDS011;47127;47.516;8.596;2023-01-28T09:58:30;12.70;;;5.88;;
61252;SDS011;47127;47.516;8.596;2023-01-28T10:00:58;15.95;;;5.88;;
61252;SDS011;47127;47.516;8.596;2023-01-28T10:11:53;16.48;;;6.07;;
61252;SDS011;47127;47.516;8.596;2023-01-28T10:17:16;13.43;;;5.82;;
61252;SDS011;47127;47.516;8.596;2023-01-28T10:21:00;12.63;;;5.50;;
61252;SDS011;47127;47.516;8.596;2023-01-28T10:23:04;12.52;;;5.20;;
61252;SDS011;47127;47.516;8.596;2023-01-28T10:25:36;12.85;;;5.22;;
61252;SDS011;47127;47.516;8.596;2023-01-28T10:28:13;12.57;;;5.47;;
61252;SDS011;47127;47.516;8.596;2023-01-28T10:30:45;12.93;;;5.90;;
61252;SDS011;47127;47.516;8.596;2023-01-28T10:33:22;13.65;;;5.47;;
61252;SDS011;47127;47.516;8.596;2023-01-28T10:36:00;15.55;;;6.05;;
61252;SDS011;47127;47.516;8.596;2023-01-28T10:38:25;15.65;;;6.28;;
61252;SDS011;47127;47.516;8.596;2023-01-28T10:40:52;14.30;;;6.20;;
61252;SDS011;47127;47.516;8.596;2023-01-28T10:43:22;16.67;;;6.32;;
61252;SDS011;47127;47.516;8.596;2023-01-28T10:48:55;14.27;;;6.22;;
61252;SDS011;47127;47.516;8.596;2023-01-28T10:51:42;19.55;;;6.53;;
61252;SDS011;47127;47.516;8.596;2023-01-28T10:54:17;15.07;;;6.32;;
61252;SDS011;47127;47.516;8.596;2023-01-28T10:59:30;16.80;;;6.18;;
61252;SDS011;47127;47.516;8.596;2023-01-28T11:01:59;12.15;;;5.93;;
61252;SDS011;47127;47.516;8.596;2023-01-28T11:04:33;12.55;;;5.65;;
61252;SDS011;47127;47.516;8.596;2023-01-28T11:07:00;14.38;;;5.63;;
61252;SDS011;47127;47.516;8.596;2023-01-28T11:09:33;13.15;;;5.38;;
61252;SDS011;47127;47.516;8.596;2023-01-28T11:12:18;14.00;;;6.05;;
61252;SDS011;47127;47.516;8.596;2023-01-28T11:14:58;12.27;;;5.78;;
61252;SDS011;47127;47.516;8.596;2023-01-28T11:17:26;12.52;;;5.53;;
61252;SDS011;47127;47.516;8.596;2023-01-28T11:19:56;14.82;;;5.93;;
61252;SDS011;47127;47.516;8.596;2023-01-28T11:22:40;16.70;;;6.75;;
61252;SDS011;47127;47.516;8.596;2023-01-28T11:27:55;13.52;;;6.35;;
61252;SDS011;47127;47.516;8.596;2023-01-28T11:30:22;13.00;;;4.88;;
61252;SDS011;47127;47.516;8.596;2023-01-28T11:32:57;13.70;;;5.97;;
61252;SDS011;47127;47.516;8.596;2023-01-28T11:35:31;12.80;;;5.82;;
61252;SDS011;47127;47.516;8.596;2023-01-28T11:37:58;13.80;;;5.78;;
61252;SDS011;47127;47.516;8.596;2023-01-28T11:40:24;13.63;;;5.95;;
61252;SDS011;47127;47.516;8.596;2023-01-28T11:42:52;13.40;;;5.90;;
61252;SDS011;47127;47.516;8.596;2023-01-28T11:45:24;12.48;;;5.35;;
61252;SDS011;47127;47.516;8.596;2023-01-28T11:50:43;12.07;;;6.25;;
61252;SDS011;47127;47.516;8.596;2023-01-28T12:10:39;15.05;;;6.18;;
61252;SDS011;47127;47.516;8.596;2023-01-28T12:24:55;12.07;;;5.55;;
61252;SDS011;47127;47.516;8.596;2023-01-28T12:27:49;14.60;;;6.60;;
61252;SDS011;47127;47.516;8.596;2023-01-28T12:39:05;17.27;;;6.70;;
61252;SDS011;47127;47.516;8.596;2023-01-28T12:41:41;16.25;;;6.82;;
61252;SDS011;47127;47.516;8.596;2023-01-28T12:44:31;15.48;;;6.78;;
61252;SDS011;47127;47.516;8.596;2023-01-28T12:47:00;19.42;;;7.55;;
61252;SDS011;47127;47.516;8.596;2023-01-28T12:49:34;17.08;;;7.03;;
61252;SDS011;47127;47.516;8.596;2023-01-28T12:52:08;16.05;;;6.28;;
61252;SDS011;47127;47.516;8.596;2023-01-28T12:54:41;15.88;;;6.22;;
61252;SDS011;47127;47.516;8.596;2023-01-28T12:57:29;15.65;;;6.18;;
61252;SDS011;47127;47.516;8.596;2023-01-28T13:02:45;17.08;;;7.10;;
61252;SDS011;47127;47.516;8.596;2023-01-28T13:05:21;15.18;;;6.60;;
61252;SDS011;47127;47.516;8.596;2023-01-28T13:07:55;17.02;;;7.40;;
61252;SDS011;47127;47.516;8.596;2023-01-28T13:10:29;15.80;;;7.15;;
61252;SDS011;47127;47.516;8.596;2023-01-28T13:13:06;18.02;;;6.97;;
61252;SDS011;47127;47.516;8.596;2023-01-28T13:15:38;13.98;;;6.38;;
61252;SDS011;47127;47.516;8.596;2023-01-28T13:18:06;15.80;;;7.07;;
61252;SDS011;47127;47.516;8.596;2023-01-28T13:20:52;17.30;;;6.72;;
61252;SDS011;47127;47.516;8.596;2023-01-28T13:23:22;14.50;;;6.97;;
61252;SDS011;47127;47.516;8.596;2023-01-28T13:25:49;15.82;;;7.13;;
61252;SDS011;47127;47.516;8.596;2023-01-28T13:30:59;16.63;;;6.95;;
61252;SDS011;47127;47.516;8.596;2023-01-28T13:33:59;14.40;;;6.57;;
61252;SDS011;47127;47.516;8.596;2023-01-28T13:36:30;15.68;;;7.32;;
61252;SDS011;47127;47.516;8.596;2023-01-28T13:41:55;15.50;;;7.68;;
61252;SDS011;47127;47.516;8.596;2023-01-28T13:44:34;16.25;;;6.50;;
61252;SDS011;47127;47.516;8.596;2023-01-28T13:49:48;16.60;;;7.32;;
61252;SDS011;47127;47.516;8.596;2023-01-28T13:52:23;18.50;;;7.03;;
61252;SDS011;47127;47.516;8.596;2023-01-28T13:54:55;17.58;;;7.93;;
61252;SDS011;47127;47.516;8.596;2023-01-28T14:03:14;17.67;;;6.55;;
61252;SDS011;47127;47.516;8.596;2023-01-28T14:08:51;17.85;;;6.85;;
61252;SDS011;47127;47.516;8.596;2023-01-28T14:16:44;17.98;;;6.80;;
61252;SDS011;47127;47.516;8.596;2023-01-28T14:19:25;17.42;;;7.32;;
61252;SDS011;47127;47.516;8.596;2023-01-28T14:21:55;15.98;;;7.28;;
61252;SDS011;47127;47.516;8.596;2023-01-28T14:24:20;16.70;;;7.28;;
61252;SDS011;47127;47.516;8.596;2023-01-28T14:27:00;17.83;;;7.88;;
61252;SDS011;47127;47.516;8.596;2023-01-28T14:29:49;20.92;;;7.55;;
61252;SDS011;47127;47.516;8.596;2023-01-28T14:32:27;17.42;;;7.07;;
61252;SDS011;47127;47.516;8.596;2023-01-28T14:34:55;15.20;;;7.18;;
61252;SDS011;47127;47.516;8.596;2023-01-28T14:37:24;17.52;;;7.90;;
61252;SDS011;47127;47.516;8.596;2023-01-28T14:39:58;16.73;;;7.35;;
61252;SDS011;47127;47.516;8.596;2023-01-28T14:45:15;18.27;;;7.50;;
61252;SDS011;47127;47.516;8.596;2023-01-28T14:57:01;14.45;;;6.80;;
61252;SDS011;47127;47.516;8.596;2023-01-28T15:02:27;17.88;;;7.65;;
61252;SDS011;47127;47.516;8.596;2023-01-28T15:04:54;16.40;;;7.47;;
61252;SDS011;47127;47.516;8.596;2023-01-28T15:07:30;16.55;;;8.02;;
61252;SDS011;47127;47.516;8.596;2023-01-28T15:10:00;18.50;;;7.93;;
61252;SDS011;47127;47.516;8.596;2023-01-28T15:12:25;16.10;;;7.38;;
61252;SDS011;47127;47.516;8.596;2023-01-28T15:14:52;22.85;;;8.73;;
61252;SDS011;47127;47.516;8.596;2023-01-28T15:17:20;16.40;;;7.47;;
61252;SDS011;47127;47.516;8.596;2023-01-28T15:19:49;17.58;;;7.38;;
61252;SDS011;47127;47.516;8.596;2023-01-28T15:22:18;20.52;;;8.95;;
61252;SDS011;47127;47.516;8.596;2023-01-28T15:24:51;18.70;;;8.60;;
61252;SDS011;47127;47.516;8.596;2023-01-28T15:27:17;15.77;;;6.95;;
61252;SDS011;47127;47.516;8.596;2023-01-28T15:29:55;16.35;;;7.80;;
61252;SDS011;47127;47.516;8.596;2023-01-28T15:32:26;18.20;;;7.55;;
61252;SDS011;47127;47.516;8.596;2023-01-28T15:34:54;15.63;;;6.85;;
61252;SDS011;47127;47.516;8.596;2023-01-28T15:37:20;23.02;;;8.85;;
61252;SDS011;47127;47.516;8.596;2023-01-28T15:39:46;18.27;;;7.15;;
61252;SDS011;47127;47.516;8.596;2023-01-28T15:42:22;16.27;;;6.80;;
61252;SDS011;47127;47.516;8.596;2023-01-28T15:44:50;16.23;;;7.45;;
61252;SDS011;47127;47.516;8.596;2023-01-28T15:47:23;15.48;;;7.05;;
61252;SDS011;47127;47.516;8.596;2023-01-28T15:49:56;16.05;;;6.85;;
61252;SDS011;47127;47.516;8.596;2023-01-28T15:52:29;15.10;;;7.22;;
61252;SDS011;47127;47.516;8.596;2023-01-28T15:55:26;17.65;;;7.80;;
61252;SDS011;47127;47.516;8.596;2023-01-28T15:57:56;18.13;;;7.15;;
61252;SDS011;47127;47.516;8.596;2023-01-28T16:00:22;18.98;;;7.88;;
61252;SDS011;47127;47.516;8.596;2023-01-28T16:02:50;16.15;;;6.97;;
61252;SDS011;47127;47.516;8.596;2023-01-28T16:05:25;16.02;;;7.15;;
61252;SDS011;47127;47.516;8.596;2023-01-28T16:08:03;21.65;;;8.65;;
61252;SDS011;47127;47.516;8.596;2023-01-28T16:10:36;15.65;;;7.18;;
61252;SDS011;47127;47.516;8.596;2023-01-28T16:15:31;17.42;;;8.05;;
61252;SDS011;47127;47.516;8.596;2023-01-28T16:17:57;16.08;;;7.28;;
61252;SDS011;47127;47.516;8.596;2023-01-28T16:20:26;14.80;;;6.57;;
61252;SDS011;47127;47.516;8.596;2023-01-28T16:22:54;16.15;;;7.32;;
61252;SDS011;47127;47.516;8.596;2023-01-28T16:25:29;13.95;;;6.18;;
61252;SDS011;47127;47.516;8.596;2023-01-28T16:27:57;15.57;;;7.10;;
61252;SDS011;47127;47.516;8.596;2023-01-28T16:30:23;13.15;;;5.93;;
61252;SDS011;47127;47.516;8.596;2023-01-28T16:32:50;14.63;;;6.18;;
61252;SDS011;47127;47.516;8.596;2023-01-28T16:37:46;14.07;;;5.95;;
61252;SDS011;47127;47.516;8.596;2023-01-28T16:40:14;17.02;;;6.05;;
61252;SDS011;47127;47.516;8.596;2023-01-28T16:42:41;14.75;;;6.10;;
61252;SDS011;47127;47.516;8.596;2023-01-28T16:45:12;13.40;;;5.60;;
61252;SDS011;47127;47.516;8.596;2023-01-28T16:47:41;17.40;;;8.02;;
61252;SDS011;47127;47.516;8.596;2023-01-28T16:50:08;14.32;;;6.50;;
61252;SDS011;47127;47.516;8.596;2023-01-28T16:52:34;17.02;;;7.25;;